createdAt,value
2023-05-05T00:00:27.688Z,2.17
2023-05-05T00:01:31.094Z,2.35
2023-05-05T00:02:34.397Z,2.37
2023-05-05T00:03:37.836Z,3.00
2023-05-05T00:04:41.039Z,2.70
2023-05-05T00:05:43.978Z,2.42
2023-05-05T00:06:47.470Z,2.80
2023-05-05T00:07:50.570Z,2.40
2023-05-05T00:08:53.535Z,2.50
2023-05-05T00:09:56.880Z,2.70
2023-05-05T00:11:00.253Z,2.55
2023-05-05T00:12:03.274Z,2.40
2023-05-05T00:13:06.796Z,2.08
2023-05-05T00:14:09.897Z,2.58
2023-05-05T00:15:12.899Z,2.58
2023-05-05T00:16:16.527Z,2.40
2023-05-05T00:17:19.648Z,2.35
2023-05-05T00:18:22.945Z,2.95
2023-05-05T00:19:25.852Z,2.40
2023-05-05T00:20:28.842Z,2.47
2023-05-05T00:21:32.109Z,2.70
2023-05-05T00:22:35.001Z,2.90
2023-05-05T00:23:37.883Z,2.47
2023-05-05T00:24:41.130Z,2.53
2023-05-05T00:25:44.494Z,2.50
2023-05-05T00:26:47.403Z,2.60
2023-05-05T00:27:50.803Z,2.50
2023-05-05T00:28:53.845Z,2.45
2023-05-05T00:29:57.137Z,2.45
2023-05-05T00:31:00.189Z,2.45
2023-05-05T00:32:03.203Z,2.70
2023-05-05T00:33:06.298Z,2.53
2023-05-05T00:34:09.173Z,2.25
2023-05-05T00:35:12.232Z,2.40
2023-05-05T00:36:15.224Z,2.50
2023-05-05T00:37:18.147Z,2.25
2023-05-05T00:38:21.076Z,2.28
2023-05-05T00:39:24.565Z,2.42
2023-05-05T00:40:27.989Z,2.53
2023-05-05T00:41:30.977Z,2.45
2023-05-05T00:42:48.567Z,2.40
2023-05-05T00:43:51.370Z,2.35
2023-05-05T00:44:54.240Z,2.22
2023-05-05T00:46:02.509Z,2.70
2023-05-05T00:47:06.205Z,2.47
2023-05-05T00:48:09.667Z,2.25
2023-05-05T00:49:12.637Z,2.47
2023-05-05T00:50:25.484Z,2.83
2023-05-05T00:51:29.056Z,2.28
2023-05-05T00:52:32.235Z,2.70
2023-05-05T00:53:36.100Z,2.42
2023-05-05T00:54:39.508Z,2.50
2023-05-05T00:55:42.723Z,2.95
2023-05-05T00:56:46.153Z,2.45
2023-05-05T00:57:49.869Z,3.22
2023-05-05T00:58:53.035Z,2.60
2023-05-05T00:59:56.612Z,2.50
2023-05-05T01:00:59.541Z,2.28
2023-05-05T01:02:02.722Z,2.40
2023-05-05T01:03:06.372Z,2.50
2023-05-05T01:04:09.512Z,2.22
2023-05-05T01:05:14.701Z,2.67
2023-05-05T01:06:23.585Z,2.40
2023-05-05T01:08:06.501Z,2.05
2023-05-05T01:09:37.601Z,2.72
2023-05-05T01:10:53.256Z,2.20
2023-05-05T01:12:18.201Z,2.25
2023-05-05T01:13:39.777Z,2.12
2023-05-05T01:14:50.603Z,2.15
2023-05-05T01:16:07.568Z,2.10
2023-05-05T01:17:23.367Z,2.45
2023-05-05T01:18:50.649Z,2.30
2023-05-05T01:20:25.119Z,2.33
2023-05-05T01:21:38.874Z,2.50
2023-05-05T01:22:53.607Z,2.08
2023-05-05T01:24:34.611Z,2.12
2023-05-05T01:25:49.370Z,2.10
2023-05-05T01:27:11.331Z,2.20
2023-05-05T01:29:28.108Z,2.20
2023-05-05T01:30:34.058Z,2.40
2023-05-05T01:31:52.295Z,2.40
2023-05-05T01:33:01.149Z,2.08
2023-05-05T01:34:10.452Z,2.50
2023-05-05T01:35:21.689Z,2.30
2023-05-05T01:37:51.206Z,2.25
2023-05-05T01:39:01.672Z,2.33
2023-05-05T01:40:08.572Z,2.40
2023-05-05T01:41:17.728Z,2.22
2023-05-05T01:42:22.655Z,2.53
2023-05-05T01:43:29.879Z,2.33
2023-05-05T01:44:36.866Z,2.08
2023-05-05T01:45:43.887Z,2.35
2023-05-05T01:46:49.325Z,2.28
2023-05-05T01:47:54.917Z,2.42
2023-05-05T01:48:59.556Z,2.53
2023-05-05T01:50:04.642Z,2.28
2023-05-05T01:51:09.297Z,2.17
2023-05-05T01:52:13.765Z,2.90
2023-05-05T01:53:19.303Z,2.30
2023-05-05T01:54:24.962Z,2.72
2023-05-05T01:55:29.785Z,2.47
2023-05-05T01:56:33.644Z,2.33
2023-05-05T01:57:43.896Z,2.40
2023-05-05T01:58:47.923Z,2.65
2023-05-05T01:59:53.062Z,2.78
2023-05-05T02:00:57.912Z,2.22
2023-05-05T02:02:03.745Z,2.12
2023-05-05T02:03:08.822Z,2.65
2023-05-05T02:04:14.647Z,2.62
2023-05-05T02:05:19.851Z,2.70
2023-05-05T02:06:24.298Z,2.62
2023-05-05T02:07:28.459Z,2.80
2023-05-05T02:08:32.950Z,2.78
2023-05-05T02:09:37.845Z,2.58
2023-05-05T02:10:41.364Z,2.40
2023-05-05T02:11:44.463Z,2.35
2023-05-05T02:12:48.078Z,2.70
2023-05-05T02:13:52.277Z,2.40
2023-05-05T02:14:57.968Z,2.70
2023-05-05T02:16:01.997Z,2.62
2023-05-05T02:17:05.399Z,2.28
2023-05-05T02:18:09.900Z,2.40
2023-05-05T02:19:14.780Z,2.28
2023-05-05T02:20:20.091Z,2.42
2023-05-05T02:21:23.445Z,2.58
2023-05-05T02:22:26.493Z,2.40
2023-05-05T02:23:30.369Z,2.28
2023-05-05T02:24:33.789Z,2.22
2023-05-05T02:25:46.132Z,2.60
2023-05-05T02:26:52.308Z,2.22
2023-05-05T02:27:58.145Z,2.37
2023-05-05T02:29:08.214Z,2.80
2023-05-05T02:30:14.630Z,2.67
2023-05-05T02:31:21.012Z,2.60
2023-05-05T02:32:39.756Z,2.85
2023-05-05T02:33:44.715Z,2.50
2023-05-05T02:34:50.218Z,2.78
2023-05-05T02:35:55.785Z,2.37
2023-05-05T02:37:03.081Z,2.20
2023-05-05T02:38:08.414Z,2.83
2023-05-05T02:39:15.469Z,2.42
2023-05-05T02:40:24.931Z,2.60
2023-05-05T02:41:29.946Z,2.80
2023-05-05T02:42:37.141Z,2.50
2023-05-05T02:43:42.806Z,2.72
2023-05-05T02:44:46.683Z,2.72
2023-05-05T02:45:49.963Z,2.55
2023-05-05T02:46:54.562Z,3.72
2023-05-05T02:47:57.843Z,2.90
2023-05-05T02:49:00.989Z,2.90
2023-05-05T02:50:07.577Z,2.42
2023-05-05T02:51:10.756Z,2.97
2023-05-05T02:52:14.767Z,2.55
2023-05-05T02:53:19.670Z,2.17
2023-05-05T02:54:22.799Z,2.55
2023-05-05T02:55:38.417Z,2.80
2023-05-05T02:56:47.376Z,2.72
2023-05-05T02:58:01.140Z,2.87
2023-05-05T02:59:18.160Z,2.75
2023-05-05T03:00:30.335Z,2.60
2023-05-05T03:02:00.912Z,2.83
2023-05-05T03:03:07.531Z,2.58
2023-05-05T03:04:21.898Z,2.80
2023-05-05T03:05:31.295Z,2.42
2023-05-05T03:06:43.056Z,2.85
2023-05-05T03:08:11.361Z,3.12
2023-05-05T03:09:32.633Z,2.50
2023-05-05T03:10:44.476Z,2.45
2023-05-05T03:11:53.624Z,2.50
2023-05-05T03:13:00.334Z,2.50
2023-05-05T03:14:10.486Z,2.67
2023-05-05T03:15:14.570Z,2.17
2023-05-05T03:16:19.023Z,2.72
2023-05-05T03:17:24.198Z,2.65
2023-05-05T03:18:29.846Z,2.33
2023-05-05T03:19:36.573Z,2.50
2023-05-05T03:20:40.998Z,2.78
2023-05-05T03:21:44.373Z,2.53
2023-05-05T03:22:48.241Z,2.85
2023-05-05T03:23:51.234Z,2.53
2023-05-05T03:24:54.207Z,2.37
2023-05-05T03:25:57.213Z,2.50
2023-05-05T03:27:00.487Z,2.47
2023-05-05T03:28:03.433Z,2.50
2023-05-05T03:29:07.147Z,2.80
2023-05-05T03:30:10.842Z,2.35
2023-05-05T03:31:14.164Z,2.40
2023-05-05T03:32:17.175Z,2.45
2023-05-05T03:33:20.885Z,2.50
2023-05-05T03:34:23.656Z,2.33
2023-05-05T03:35:26.598Z,2.40
2023-05-05T03:36:30.103Z,2.40
2023-05-05T03:37:33.101Z,2.22
2023-05-05T03:38:35.942Z,2.60
2023-05-05T03:39:39.054Z,2.53
2023-05-05T03:40:44.568Z,2.30
2023-05-05T03:41:47.740Z,2.40
2023-05-05T03:42:51.001Z,2.25
2023-05-05T03:43:54.334Z,2.60
2023-05-05T03:44:57.438Z,2.40
2023-05-05T03:46:00.474Z,2.30
2023-05-05T03:47:03.635Z,2.78
2023-05-05T03:48:07.176Z,2.20
2023-05-05T03:49:10.182Z,2.30
2023-05-05T03:50:13.230Z,2.30
2023-05-05T03:51:24.827Z,2.60
2023-05-05T03:52:27.862Z,2.70
2023-05-05T03:53:30.934Z,2.42
2023-05-05T03:54:33.921Z,2.10
2023-05-05T03:55:37.231Z,2.42
2023-05-05T03:56:40.293Z,2.60
2023-05-05T03:57:43.214Z,2.78
2023-05-05T03:58:46.423Z,2.47
2023-05-05T03:59:49.231Z,2.35
2023-05-05T04:00:52.519Z,2.60
2023-05-05T04:01:55.476Z,2.45
2023-05-05T04:02:58.593Z,2.22
2023-05-05T04:04:02.028Z,2.30
2023-05-05T04:05:05.390Z,2.30
2023-05-05T04:06:08.251Z,2.28
2023-05-05T04:07:11.524Z,2.37
2023-05-05T04:08:14.519Z,2.20
2023-05-05T04:09:17.507Z,1.87
2023-05-05T04:10:20.417Z,2.50
2023-05-05T04:11:23.513Z,2.37
2023-05-05T04:12:26.519Z,2.60
2023-05-05T04:13:29.823Z,2.10
2023-05-05T04:14:32.896Z,2.70
2023-05-05T04:15:35.937Z,2.60
2023-05-05T04:16:39.041Z,2.53
2023-05-05T04:17:43.097Z,2.58
2023-05-05T04:18:46.396Z,2.72
2023-05-05T04:19:49.490Z,2.65
2023-05-05T04:20:52.546Z,2.47
2023-05-05T04:21:55.550Z,2.55
2023-05-05T04:22:58.537Z,2.62
2023-05-05T04:24:01.515Z,2.40
2023-05-05T04:25:04.857Z,2.35
2023-05-05T04:26:07.782Z,2.70
2023-05-05T04:27:10.607Z,2.40
2023-05-05T04:28:13.662Z,2.50
2023-05-05T04:29:17.354Z,2.60
2023-05-05T04:30:20.562Z,2.72
2023-05-05T04:31:23.865Z,2.53
2023-05-05T04:32:27.492Z,2.78
2023-05-05T04:33:31.003Z,2.53
2023-05-05T04:34:33.970Z,2.40
2023-05-05T04:35:36.795Z,2.60
2023-05-05T04:36:39.760Z,2.25
2023-05-05T04:37:42.903Z,2.95
2023-05-05T04:38:46.133Z,2.70
2023-05-05T04:39:49.455Z,2.15
2023-05-05T04:40:52.659Z,2.65
2023-05-05T04:41:55.740Z,2.78
2023-05-05T04:42:58.728Z,2.70
2023-05-05T04:44:01.760Z,2.60
2023-05-05T04:45:05.286Z,2.83
2023-05-05T04:46:08.207Z,2.35
2023-05-05T04:47:12.610Z,2.80
2023-05-05T04:48:17.838Z,2.58
2023-05-05T04:49:20.805Z,2.90
2023-05-05T04:50:23.880Z,2.47
2023-05-05T04:51:27.929Z,2.35
2023-05-05T04:52:30.962Z,2.75
2023-05-05T04:53:34.130Z,2.55
2023-05-05T04:54:37.914Z,2.62
2023-05-05T04:55:40.856Z,2.37
2023-05-05T04:56:44.722Z,2.70
2023-05-05T04:57:47.751Z,2.65
2023-05-05T04:58:50.944Z,2.45
2023-05-05T04:59:53.908Z,2.42
2023-05-05T05:00:56.904Z,2.53
2023-05-05T05:02:00.015Z,3.20
2023-05-05T05:03:03.376Z,2.70
2023-05-05T05:04:06.492Z,2.90
2023-05-05T05:05:10.035Z,2.50
2023-05-05T05:06:12.980Z,2.47
2023-05-05T05:07:15.963Z,2.67
2023-05-05T05:08:19.119Z,3.00
2023-05-05T05:09:22.158Z,2.62
2023-05-05T05:10:25.066Z,2.95
2023-05-05T05:11:28.275Z,3.12
2023-05-05T05:12:31.408Z,2.90
2023-05-05T05:13:34.376Z,2.97
2023-05-05T05:14:38.417Z,2.60
2023-05-05T05:15:42.288Z,2.58
2023-05-05T05:16:45.709Z,2.97
2023-05-05T05:17:48.786Z,3.45
2023-05-05T05:18:51.770Z,3.30
2023-05-05T05:19:55.633Z,2.87
2023-05-05T05:20:58.806Z,3.40
2023-05-05T05:22:01.791Z,3.17
2023-05-05T05:23:04.813Z,2.90
2023-05-05T05:24:07.885Z,3.20
2023-05-05T05:25:11.212Z,2.78
2023-05-05T05:26:14.234Z,2.80
2023-05-05T05:27:17.188Z,3.00
2023-05-05T05:28:20.404Z,2.97
2023-05-05T05:29:23.329Z,2.80
2023-05-05T05:30:26.288Z,2.53
2023-05-05T05:31:29.173Z,2.60
2023-05-05T05:32:32.809Z,2.62
2023-05-05T05:33:35.714Z,2.78
2023-05-05T05:34:38.735Z,2.97
2023-05-05T05:35:41.782Z,2.90
2023-05-05T05:36:44.945Z,2.45
2023-05-05T05:37:47.978Z,2.40
2023-05-05T05:38:51.090Z,2.42
2023-05-05T05:39:53.954Z,2.67
2023-05-05T05:40:56.966Z,2.33
2023-05-05T05:42:01.061Z,2.42
2023-05-05T05:43:04.419Z,2.60
2023-05-05T05:44:07.290Z,2.58
2023-05-05T05:45:10.666Z,2.60
2023-05-05T05:46:13.811Z,2.45
2023-05-05T05:47:16.726Z,2.70
2023-05-05T05:48:19.648Z,2.50
2023-05-05T05:49:22.544Z,2.60
2023-05-05T05:50:28.786Z,2.70
2023-05-05T05:51:31.926Z,2.53
2023-05-05T05:52:36.442Z,2.55
2023-05-05T05:53:39.334Z,2.42
2023-05-05T05:54:42.333Z,2.40
2023-05-05T05:55:46.836Z,2.50
2023-05-05T05:56:49.815Z,2.65
2023-05-05T05:57:52.723Z,2.40
2023-05-05T05:58:55.707Z,2.67
2023-05-05T06:00:00.494Z,2.80
2023-05-05T06:01:05.441Z,2.60
2023-05-05T06:02:08.421Z,2.50
2023-05-05T06:03:12.449Z,2.37
2023-05-05T06:04:15.936Z,2.67
2023-05-05T06:05:18.871Z,2.95
2023-05-05T06:06:22.212Z,2.72
2023-05-05T06:07:25.505Z,2.50
2023-05-05T06:08:28.515Z,3.17
2023-05-05T06:09:31.755Z,2.87
2023-05-05T06:10:35.125Z,2.37
2023-05-05T06:11:38.618Z,2.85
2023-05-05T06:12:41.736Z,2.65
2023-05-05T06:13:47.818Z,2.80
2023-05-05T06:14:50.894Z,2.70
2023-05-05T06:15:53.940Z,3.17
2023-05-05T06:16:57.008Z,2.75
2023-05-05T06:18:00.109Z,2.58
2023-05-05T06:19:03.265Z,2.80
2023-05-05T06:20:07.521Z,2.58
2023-05-05T06:21:10.684Z,2.78
2023-05-05T06:22:13.735Z,3.42
2023-05-05T06:23:16.751Z,2.65
2023-05-05T06:24:19.737Z,2.83
2023-05-05T06:25:22.716Z,2.80
2023-05-05T06:26:26.322Z,2.90
2023-05-05T06:27:29.341Z,2.90
2023-05-05T06:28:32.507Z,3.17
2023-05-05T06:29:35.311Z,3.00
2023-05-05T06:30:38.316Z,3.05
2023-05-05T06:31:41.260Z,3.17
2023-05-05T06:32:44.319Z,2.92
2023-05-05T06:33:47.211Z,3.20
2023-05-05T06:34:50.206Z,2.75
2023-05-05T06:35:53.599Z,3.37
2023-05-05T06:36:56.619Z,2.87
2023-05-05T06:37:59.719Z,2.92
2023-05-05T06:39:02.711Z,2.95
2023-05-05T06:40:07.192Z,3.65
2023-05-05T06:41:10.284Z,2.95
2023-05-05T06:42:13.857Z,3.05
2023-05-05T06:43:18.829Z,3.22
2023-05-05T06:44:21.854Z,2.87
2023-05-05T06:45:24.857Z,3.10
2023-05-05T06:46:28.338Z,3.37
2023-05-05T06:47:31.916Z,3.58
2023-05-05T06:48:34.944Z,3.25
2023-05-05T06:49:37.858Z,3.33
2023-05-05T06:50:41.121Z,3.05
2023-05-05T06:51:44.648Z,3.37
2023-05-05T06:52:47.934Z,3.42
2023-05-05T06:53:51.394Z,3.20
2023-05-05T06:54:54.273Z,3.72
2023-05-05T06:55:57.199Z,3.47
2023-05-05T06:57:00.268Z,3.25
2023-05-05T06:58:06.028Z,3.60
2023-05-05T06:59:08.896Z,4.03
2023-05-05T07:00:14.118Z,3.97
2023-05-05T07:01:17.352Z,4.25
2023-05-05T07:02:20.403Z,3.62
2023-05-05T07:03:24.237Z,3.78
2023-05-05T07:04:27.134Z,3.30
2023-05-05T07:05:30.205Z,3.37
2023-05-05T07:06:33.346Z,3.53
2023-05-05T07:07:36.726Z,3.70
2023-05-05T07:08:39.550Z,3.97
2023-05-05T07:09:43.073Z,3.90
2023-05-05T07:10:46.099Z,4.28
2023-05-05T07:11:49.177Z,5.00
2023-05-05T07:12:52.752Z,4.12
2023-05-05T07:13:56.027Z,4.12
2023-05-05T07:14:59.020Z,3.90
2023-05-05T07:16:02.307Z,4.28
2023-05-05T07:17:05.707Z,4.05
2023-05-05T07:18:08.688Z,3.90
2023-05-05T07:19:11.787Z,3.95
2023-05-05T07:20:14.751Z,3.42
2023-05-05T07:21:17.781Z,3.62
2023-05-05T07:22:20.884Z,3.70
2023-05-05T07:23:23.973Z,3.72
2023-05-05T07:24:26.959Z,3.87
2023-05-05T07:25:29.970Z,4.05
2023-05-05T07:26:33.228Z,4.15
2023-05-05T07:27:37.487Z,3.65
2023-05-05T07:28:40.412Z,4.32
2023-05-05T07:29:43.789Z,3.92
2023-05-05T07:30:46.697Z,4.70
2023-05-05T07:31:49.705Z,4.50
2023-05-05T07:32:52.990Z,4.07
2023-05-05T07:33:55.791Z,4.15
2023-05-05T07:34:59.099Z,4.05
2023-05-05T07:36:02.351Z,4.50
2023-05-05T07:37:05.434Z,4.12
2023-05-05T07:38:10.768Z,4.00
2023-05-05T07:39:15.491Z,4.22
2023-05-05T07:40:18.901Z,4.18
2023-05-05T07:41:22.131Z,4.28
2023-05-05T07:42:25.085Z,4.32
2023-05-05T07:43:27.910Z,4.03
2023-05-05T07:44:31.003Z,4.07
2023-05-05T07:45:34.084Z,4.68
2023-05-05T07:46:37.441Z,4.40
2023-05-05T07:47:41.030Z,4.03
2023-05-05T07:48:44.106Z,4.53
2023-05-05T07:49:47.065Z,4.60
2023-05-05T07:50:50.127Z,4.28
2023-05-05T07:51:53.674Z,4.45
2023-05-05T07:53:06.126Z,4.30
2023-05-05T07:54:17.731Z,4.37
2023-05-05T07:55:21.126Z,4.37
2023-05-05T07:56:24.213Z,4.25
2023-05-05T07:57:27.143Z,4.18
2023-05-05T07:58:29.974Z,4.55
2023-05-05T07:59:32.900Z,4.40
2023-05-05T08:00:35.938Z,4.30
2023-05-05T08:01:39.642Z,4.47
2023-05-05T08:02:42.727Z,4.75
2023-05-05T08:03:45.967Z,4.68
2023-05-05T08:04:48.932Z,4.30
2023-05-05T08:05:54.524Z,4.72
2023-05-05T08:06:57.965Z,4.45
2023-05-05T08:08:00.930Z,4.45
2023-05-05T08:09:03.998Z,4.22
2023-05-05T08:10:11.672Z,4.20
2023-05-05T08:11:15.272Z,4.80
2023-05-05T08:12:19.433Z,5.12
2023-05-05T08:13:22.507Z,4.78
2023-05-05T08:14:25.630Z,4.30
2023-05-05T08:15:28.678Z,4.65
2023-05-05T08:16:32.492Z,4.22
2023-05-05T08:17:49.372Z,4.12
2023-05-05T08:18:52.655Z,4.45
2023-05-05T08:19:55.788Z,4.03
2023-05-05T08:20:58.936Z,4.32
2023-05-05T08:22:02.078Z,4.60
2023-05-05T08:23:05.825Z,4.25
2023-05-05T08:24:09.499Z,4.50
2023-05-05T08:25:13.546Z,4.37
2023-05-05T08:26:16.823Z,4.12
2023-05-05T08:27:19.898Z,4.35
2023-05-05T08:28:23.410Z,4.50
2023-05-05T08:29:26.522Z,4.25
2023-05-05T08:30:30.382Z,4.75
2023-05-05T08:31:34.763Z,4.37
2023-05-05T08:32:38.772Z,4.60
2023-05-05T08:33:41.841Z,4.65
2023-05-05T08:34:44.809Z,4.22
2023-05-05T08:35:49.287Z,4.25
2023-05-05T08:36:52.908Z,4.03
2023-05-05T08:37:58.121Z,5.10
2023-05-05T08:39:02.264Z,4.22
2023-05-05T08:40:06.066Z,4.50
2023-05-05T08:41:13.283Z,4.75
2023-05-05T08:42:25.762Z,4.22
2023-05-05T08:43:36.761Z,4.90
2023-05-05T08:44:40.009Z,4.47
2023-05-05T08:45:43.608Z,4.65
2023-05-05T08:46:47.113Z,4.30
2023-05-05T08:47:50.227Z,4.47
2023-05-05T08:48:55.598Z,4.95
2023-05-05T08:49:59.746Z,4.28
2023-05-05T08:51:06.980Z,4.00
2023-05-05T08:52:14.123Z,4.35
2023-05-05T08:53:22.330Z,4.37
2023-05-05T08:54:27.718Z,4.65
2023-05-05T08:55:35.089Z,4.65
2023-05-05T08:56:43.871Z,4.57
2023-05-05T08:57:56.740Z,4.55
2023-05-05T08:59:04.011Z,4.62
2023-05-05T09:00:10.093Z,4.07
2023-05-05T09:01:15.037Z,4.30
2023-05-05T09:02:18.991Z,4.25
2023-05-05T09:03:22.476Z,4.40
2023-05-05T09:04:25.504Z,4.60
2023-05-05T09:05:28.554Z,4.30
2023-05-05T09:06:34.276Z,4.32
2023-05-05T09:07:38.677Z,4.45
2023-05-05T09:08:41.745Z,4.70
2023-05-05T09:09:45.005Z,4.20
2023-05-05T09:10:49.373Z,3.83
2023-05-05T09:11:54.211Z,4.35
2023-05-05T09:12:57.950Z,4.35
2023-05-05T09:15:22.875Z,4.35
2023-05-05T09:16:26.012Z,5.03
2023-05-05T09:17:29.715Z,4.80
2023-05-05T09:18:32.898Z,4.90
2023-05-05T09:20:08.572Z,4.37
2023-05-05T09:21:26.260Z,4.57
2023-05-05T09:22:34.372Z,4.37
2023-05-05T09:23:38.368Z,4.00
2023-05-05T09:24:55.373Z,4.00
2023-05-05T09:26:11.298Z,4.40
2023-05-05T09:27:25.851Z,4.62
2023-05-05T09:28:29.436Z,4.43
2023-05-05T09:29:32.489Z,4.93
2023-05-05T09:30:36.313Z,4.57
2023-05-05T09:31:39.436Z,4.60
2023-05-05T09:32:52.968Z,4.95
2023-05-05T09:33:57.360Z,5.00
2023-05-05T09:35:01.546Z,4.53
2023-05-05T09:36:04.693Z,4.55
2023-05-05T09:37:07.629Z,4.70
2023-05-05T09:38:13.464Z,4.50
2023-05-05T09:39:20.364Z,4.30
2023-05-05T09:40:23.609Z,4.50
2023-05-05T09:41:41.274Z,4.20
2023-05-05T09:42:45.056Z,4.57
2023-05-05T09:43:52.757Z,4.80
2023-05-05T09:44:59.685Z,4.75
2023-05-05T09:46:07.876Z,4.75
2023-05-05T09:47:26.064Z,4.40
2023-05-05T09:48:32.927Z,4.70
2023-05-05T09:49:37.645Z,4.90
2023-05-05T09:50:44.964Z,4.90
2023-05-05T09:51:49.363Z,5.45
2023-05-05T09:53:03.149Z,5.07
2023-05-05T09:54:06.428Z,5.30
2023-05-05T09:55:18.572Z,5.50
2023-05-05T09:56:21.481Z,5.20
2023-05-05T09:57:29.422Z,4.93
2023-05-05T09:58:32.576Z,4.75
2023-05-05T09:59:35.858Z,4.70
2023-05-05T10:00:39.866Z,4.60
2023-05-05T10:01:44.054Z,5.25
2023-05-05T10:02:47.103Z,5.03
2023-05-05T10:03:53.272Z,4.82
2023-05-05T10:05:08.321Z,5.00
2023-05-05T10:06:11.720Z,5.35
2023-05-05T10:07:24.749Z,5.43
2023-05-05T10:08:34.536Z,5.00
2023-05-05T10:09:37.640Z,5.03
2023-05-05T10:10:51.797Z,5.03
2023-05-05T10:11:58.183Z,5.15
2023-05-05T10:13:02.060Z,4.97
2023-05-05T10:14:08.007Z,4.65
2023-05-05T10:15:12.460Z,5.32
2023-05-05T10:16:18.658Z,4.82
2023-05-05T10:17:24.000Z,5.00
2023-05-05T10:18:28.877Z,5.18
2023-05-05T10:19:35.384Z,5.12
2023-05-05T10:20:39.116Z,5.00
2023-05-05T10:21:46.963Z,4.95
2023-05-05T10:22:53.669Z,4.85
2023-05-05T10:24:09.801Z,4.87
2023-05-05T10:25:18.521Z,5.65
2023-05-05T10:26:23.442Z,4.82
2023-05-05T10:27:28.719Z,4.28
2023-05-05T10:28:42.332Z,4.80
2023-05-05T10:29:51.064Z,4.62
2023-05-05T10:30:58.798Z,4.57
2023-05-05T10:32:52.018Z,4.60
2023-05-05T10:34:03.924Z,4.45
2023-05-05T10:35:11.510Z,4.70
2023-05-05T10:36:15.355Z,4.43
2023-05-05T10:37:20.276Z,4.00
2023-05-05T10:38:26.835Z,4.20
2023-05-05T10:39:30.365Z,4.28
2023-05-05T10:40:34.245Z,3.70
2023-05-05T10:41:38.045Z,4.50
2023-05-05T10:42:41.236Z,4.32
2023-05-05T10:43:45.444Z,4.43
2023-05-05T10:44:49.395Z,4.55
2023-05-05T10:45:53.607Z,4.68
2023-05-05T10:46:58.381Z,4.25
2023-05-05T10:48:07.366Z,4.15
2023-05-05T10:49:18.196Z,4.00
2023-05-05T10:50:27.352Z,4.15
2023-05-05T10:51:57.753Z,4.37
2023-05-05T10:53:19.006Z,4.57
2023-05-05T10:55:12.510Z,4.05
2023-05-05T10:56:26.912Z,4.22
2023-05-05T10:57:32.765Z,4.40
2023-05-05T10:58:51.136Z,4.80
2023-05-05T11:00:01.606Z,4.10
2023-05-05T11:01:07.152Z,4.50
2023-05-05T11:02:28.684Z,5.20
2023-05-05T11:03:32.479Z,4.43
2023-05-05T11:04:35.382Z,4.50
2023-05-05T11:06:04.398Z,4.45
2023-05-05T11:07:13.827Z,3.85
2023-05-05T11:08:27.383Z,4.15
2023-05-05T11:09:30.767Z,4.07
2023-05-05T11:10:45.019Z,3.90
2023-05-05T11:12:05.712Z,4.85
2023-05-05T11:13:08.925Z,4.17
2023-05-05T11:14:22.733Z,3.78
2023-05-05T11:15:31.486Z,4.43
2023-05-05T11:16:48.115Z,4.10
2023-05-05T11:17:51.428Z,4.00
2023-05-05T11:18:54.491Z,3.97
2023-05-05T11:19:57.896Z,4.50
2023-05-05T11:21:00.717Z,4.43
2023-05-05T11:22:03.608Z,4.72
2023-05-05T11:23:06.577Z,4.62
2023-05-05T11:24:31.541Z,4.47
2023-05-05T11:25:37.857Z,4.50
2023-05-05T11:26:51.992Z,4.07
2023-05-05T11:28:09.422Z,4.10
2023-05-05T11:29:12.302Z,4.22
2023-05-05T11:30:15.605Z,4.30
2023-05-05T11:31:19.949Z,5.40
2023-05-05T11:32:23.318Z,4.80
2023-05-05T11:33:32.169Z,4.43
2023-05-05T11:34:35.066Z,4.28
2023-05-05T11:36:06.153Z,5.40
2023-05-05T11:37:10.734Z,4.95
2023-05-05T11:38:15.958Z,4.90
2023-05-05T11:39:21.571Z,4.37
2023-05-05T11:40:31.149Z,4.37
2023-05-05T11:41:52.608Z,4.40
2023-05-05T11:43:07.723Z,4.87
2023-05-05T11:44:14.365Z,4.85
2023-05-05T11:45:22.453Z,4.45
2023-05-05T11:46:25.500Z,3.90
2023-05-05T11:47:31.066Z,4.40
2023-05-05T11:48:48.051Z,4.30
2023-05-05T11:49:51.176Z,4.07
2023-05-05T11:50:54.818Z,5.18
2023-05-05T11:52:02.356Z,4.80
2023-05-05T11:53:05.575Z,5.12
2023-05-05T11:54:08.598Z,4.93
2023-05-05T11:55:11.789Z,4.28
2023-05-05T11:56:21.055Z,5.00
2023-05-05T11:57:29.277Z,4.53
2023-05-05T11:58:32.258Z,5.05
2023-05-05T11:59:37.699Z,4.87
2023-05-05T12:00:41.006Z,4.82
2023-05-05T12:01:44.068Z,4.60
2023-05-05T12:02:47.505Z,5.18
2023-05-05T12:03:50.817Z,4.60
2023-05-05T12:04:54.519Z,5.47
2023-05-05T12:05:57.572Z,5.05
2023-05-05T12:07:00.999Z,5.18
2023-05-05T12:08:06.075Z,4.60
2023-05-05T12:09:19.739Z,4.80
2023-05-05T12:10:24.022Z,4.53
2023-05-05T12:11:27.193Z,4.00
2023-05-05T12:12:38.912Z,4.37
2023-05-05T12:13:42.171Z,4.72
2023-05-05T12:14:47.598Z,4.93
2023-05-05T12:15:50.726Z,4.35
2023-05-05T12:16:58.160Z,4.03
2023-05-05T12:18:03.219Z,3.97
2023-05-05T12:19:08.580Z,3.83
2023-05-05T12:20:13.412Z,4.20
2023-05-05T12:21:21.099Z,4.22
2023-05-05T12:22:26.006Z,4.32
2023-05-05T12:23:30.751Z,4.72
2023-05-05T12:24:33.940Z,5.25
2023-05-05T12:25:38.492Z,4.90
2023-05-05T12:26:42.154Z,5.32
2023-05-05T12:27:53.477Z,4.55
2023-05-05T12:29:00.696Z,4.78
2023-05-05T12:30:16.928Z,4.90
2023-05-05T12:31:20.252Z,4.78
2023-05-05T12:32:33.079Z,4.40
2023-05-05T12:33:40.146Z,4.50
2023-05-05T12:34:43.303Z,4.53
2023-05-05T12:35:46.236Z,4.55
2023-05-05T12:36:49.911Z,4.10
2023-05-05T12:37:53.074Z,4.35
2023-05-05T12:38:56.279Z,4.65
2023-05-05T12:39:59.485Z,4.80
2023-05-05T12:41:03.320Z,4.45
2023-05-05T12:42:06.824Z,4.80
2023-05-05T12:43:09.942Z,4.57
2023-05-05T12:44:13.112Z,5.05
2023-05-05T12:45:19.414Z,4.82
2023-05-05T12:46:23.613Z,4.68
2023-05-05T12:47:33.358Z,4.45
2023-05-05T12:48:38.654Z,4.93
2023-05-05T12:49:46.184Z,4.72
2023-05-05T12:50:49.216Z,4.55
2023-05-05T12:51:57.323Z,4.65
2023-05-05T12:53:00.424Z,4.40
2023-05-05T12:54:09.891Z,4.40
2023-05-05T12:55:13.628Z,4.35
2023-05-05T12:56:41.494Z,4.40
2023-05-05T12:58:01.703Z,4.10
2023-05-05T12:59:07.853Z,4.43
2023-05-05T13:00:18.380Z,4.28
2023-05-05T13:01:21.541Z,3.95
2023-05-05T13:02:34.380Z,4.43
2023-05-05T13:03:37.581Z,4.80
2023-05-05T13:04:54.200Z,4.95
2023-05-05T13:05:57.165Z,5.00
2023-05-05T13:07:16.520Z,4.43
2023-05-05T13:08:19.755Z,5.05
2023-05-05T13:09:36.258Z,4.72
2023-05-05T13:10:44.489Z,5.00
2023-05-05T13:11:47.734Z,4.45
2023-05-05T13:12:50.925Z,3.80
2023-05-05T13:13:54.405Z,4.30
2023-05-05T13:14:57.221Z,4.32
2023-05-05T13:16:00.459Z,4.55
2023-05-05T13:17:03.742Z,5.10
2023-05-05T13:18:06.745Z,4.30
2023-05-05T13:19:10.719Z,4.55
2023-05-05T13:20:14.389Z,5.30
2023-05-05T13:21:17.467Z,5.12
2023-05-05T13:22:20.557Z,5.47
2023-05-05T13:23:24.666Z,4.80
2023-05-05T13:24:46.402Z,4.43
2023-05-05T13:25:53.386Z,4.55
2023-05-05T13:26:56.800Z,4.75
2023-05-05T13:27:59.867Z,5.40
2023-05-05T13:29:02.765Z,4.30
2023-05-05T13:30:06.657Z,3.35
2023-05-05T13:31:09.878Z,3.78
2023-05-05T13:32:13.056Z,3.80
2023-05-05T13:33:16.155Z,3.80
2023-05-05T13:34:19.243Z,3.62
2023-05-05T13:35:22.204Z,3.30
2023-05-05T13:36:25.257Z,4.30
2023-05-05T13:37:28.328Z,4.70
2023-05-05T13:38:34.707Z,3.90
2023-05-05T13:39:37.770Z,3.55
2023-05-05T13:40:40.887Z,4.50
2023-05-05T13:41:47.038Z,3.80
2023-05-05T13:42:50.041Z,4.20
2023-05-05T13:43:53.476Z,4.90
2023-05-05T13:44:56.410Z,4.80
2023-05-05T13:46:12.325Z,3.92
2023-05-05T13:47:22.260Z,3.60
2023-05-05T13:48:25.314Z,4.80
2023-05-05T13:49:28.262Z,4.82
2023-05-05T13:50:32.165Z,4.50
2023-05-05T13:51:35.476Z,4.18
2023-05-05T13:52:38.758Z,3.90
2023-05-05T13:53:44.278Z,3.97
2023-05-05T13:54:47.221Z,4.12
2023-05-05T13:55:50.387Z,4.15
2023-05-05T13:56:53.355Z,4.12
2023-05-05T13:57:56.573Z,4.75
2023-05-05T13:58:59.836Z,4.30
2023-05-05T14:00:04.584Z,4.55
2023-05-05T14:01:07.768Z,4.40
2023-05-05T14:02:11.838Z,4.78
2023-05-05T14:03:14.805Z,3.92
2023-05-05T14:04:17.843Z,4.05
2023-05-05T14:05:21.791Z,4.12
2023-05-05T14:06:24.856Z,4.15
2023-05-05T14:07:28.391Z,4.00
2023-05-05T14:08:31.455Z,3.55
2023-05-05T14:09:34.533Z,3.42
2023-05-05T14:10:37.527Z,3.70
2023-05-05T14:11:40.466Z,3.97
2023-05-05T14:12:43.891Z,3.55
2023-05-05T14:13:47.790Z,4.40
2023-05-05T14:14:50.776Z,4.10
2023-05-05T14:15:54.092Z,3.72
2023-05-05T14:16:57.259Z,4.10
2023-05-05T14:18:00.377Z,3.83
2023-05-05T14:19:03.372Z,4.00
2023-05-05T14:20:07.395Z,4.55
2023-05-05T14:21:10.324Z,4.35
2023-05-05T14:22:13.327Z,3.70
2023-05-05T14:23:16.307Z,3.90
2023-05-05T14:24:19.165Z,3.65
2023-05-05T14:25:22.153Z,4.35
2023-05-05T14:26:26.027Z,4.25
2023-05-05T14:27:28.924Z,3.78
2023-05-05T14:28:31.940Z,3.92
2023-05-05T14:29:35.098Z,3.90
2023-05-05T14:30:38.411Z,4.03
2023-05-05T14:31:41.787Z,3.90
2023-05-05T14:32:44.871Z,3.40
2023-05-05T14:33:47.911Z,3.55
2023-05-05T14:34:50.910Z,3.37
2023-05-05T14:35:53.947Z,3.60
2023-05-05T14:36:57.481Z,3.67
2023-05-05T14:38:00.498Z,3.33